Time;durP1;ratioP1;P1;durP2;ratioP2;P2;SDS_P1;SDS_P2;PMS_P1;PMS_P2;Temp;Humidity;BMP_temperature;BMP_pressure;BME280_temperature;BME280_humidity;BME280_pressure;Samples;Min_cycle;Max_cycle;Signal;HPM_P1;HPM_P2
2023/12/12 00:02:04;;;;;;;19.48;5.10;;;7.30;99.90;;;;;;4991882;28;20042;-72
2023/12/12 00:04:30;;;;;;;11.43;4.25;;;7.30;99.90;;;;;;4991872;28;21135;-71
2023/12/12 00:06:55;;;;;;;17.30;3.97;;;7.30;99.90;;;;;;4991976;28;20054;-69
2023/12/12 00:09:21;;;;;;;17.23;4.50;;;7.30;99.90;;;;;;4990266;28;20037;-71
2023/12/12 00:11:46;;;;;;;25.55;4.40;;;7.30;99.90;;;;;;4993030;28;20072;-72
2023/12/12 00:14:12;;;;;;;18.15;4.22;;;7.30;99.90;;;;;;4994900;28;20034;-71
2023/12/12 00:16:37;;;;;;;15.77;3.80;;;7.30;99.90;;;;;;4995882;28;20076;-72
2023/12/12 00:19:03;;;;;;;11.13;3.53;;;7.30;99.90;;;;;;4995776;28;20074;-72
2023/12/12 00:21:29;;;;;;;14.73;3.88;;;7.30;99.90;;;;;;4995641;28;20084;-72
2023/12/12 00:23:55;;;;;;;28.38;4.70;;;7.30;99.90;;;;;;4995451;28;20065;-71
2023/12/12 00:26:21;;;;;;;11.05;3.97;;;7.30;99.90;;;;;;4994888;28;20399;-71
2023/12/12 00:28:46;;;;;;;21.92;4.53;;;7.30;99.90;;;;;;4995255;28;20042;-70
2023/12/12 00:31:12;;;;;;;21.08;4.78;;;7.30;99.90;;;;;;4995535;28;20045;-73
2023/12/12 00:33:38;;;;;;;24.73;5.03;;;7.30;99.90;;;;;;4995273;28;20022;-71
2023/12/12 00:36:06;;;;;;;15.10;3.97;;;7.30;99.90;;;;;;4995488;28;20058;-72
2023/12/12 00:38:31;;;;;;;24.35;4.45;;;7.30;99.90;;;;;;4993771;28;20080;-72
2023/12/12 00:40:57;;;;;;;20.65;4.57;;;7.30;99.90;;;;;;4995132;28;20070;-71
2023/12/12 00:43:24;;;;;;;20.15;4.03;;;7.30;99.90;;;;;;4995012;28;20023;-71
2023/12/12 00:45:50;;;;;;;22.17;4.43;;;7.30;99.90;;;;;;4995409;28;20110;-72
2023/12/12 00:48:17;;;;;;;13.60;4.05;;;7.30;99.90;;;;;;4993929;28;20050;-73
2023/12/12 00:50:43;;;;;;;18.08;4.68;;;7.30;99.90;;;;;;4994684;28;20046;-70
2023/12/12 00:53:08;;;;;;;17.52;4.00;;;7.30;99.90;;;;;;4995223;28;20030;-71
2023/12/12 00:55:34;;;;;;;16.73;4.30;;;7.20;99.90;;;;;;4993343;28;20018;-73
2023/12/12 00:57:59;;;;;;;20.10;4.82;;;7.30;99.90;;;;;;4995217;28;20027;-72
2023/12/12 01:00:25;;;;;;;17.88;4.43;;;7.30;99.90;;;;;;4994404;28;20030;-72
2023/12/12 01:02:50;;;;;;;18.23;4.55;;;7.30;99.90;;;;;;4995184;28;20034;-71
2023/12/12 01:05:16;;;;;;;17.30;4.13;;;7.30;99.90;;;;;;4994893;28;20026;-71
2023/12/12 01:07:41;;;;;;;27.00;4.88;;;7.30;99.90;;;;;;4994263;28;20068;-71
2023/12/12 01:10:07;;;;;;;20.27;4.70;;;7.30;99.90;;;;;;4994723;28;20050;-72
2023/12/12 01:12:34;;;;;;;19.65;5.05;;;7.20;99.90;;;;;;4992797;28;20058;-70
2023/12/12 01:14:59;;;;;;;21.75;4.82;;;7.20;99.90;;;;;;4994716;28;20026;-71
2023/12/12 01:17:29;;;;;;;26.83;4.97;;;7.20;99.90;;;;;;4993650;28;20048;-71
2023/12/12 01:19:55;;;;;;;18.63;5.25;;;7.20;99.90;;;;;;4993722;28;20030;-71
2023/12/12 01:22:20;;;;;;;17.80;5.18;;;7.20;99.90;;;;;;4994364;28;20575;-72
2023/12/12 01:24:46;;;;;;;20.83;5.53;;;7.20;99.90;;;;;;4994409;28;20018;-69
2023/12/12 01:27:12;;;;;;;18.90;5.63;;;7.10;99.90;;;;;;5009155;28;20141;-72
2023/12/12 01:29:38;;;;;;;27.70;5.72;;;7.10;99.90;;;;;;4992936;28;20062;-72
2023/12/12 01:32:04;;;;;;;19.98;6.03;;;7.10;99.90;;;;;;5009409;28;20072;-72
2023/12/12 01:34:30;;;;;;;25.50;6.88;;;7.10;99.90;;;;;;4994343;28;21076;-72
2023/12/12 01:36:55;;;;;;;23.42;7.93;;;7.10;99.90;;;;;;4994243;28;20093;-72
2023/12/12 01:39:21;;;;;;;20.17;6.05;;;7.10;99.90;;;;;;4994077;28;20038;-72
2023/12/12 01:41:50;;;;;;;28.27;6.78;;;7.10;99.90;;;;;;4993469;28;20049;-73
2023/12/12 01:44:16;;;;;;;24.35;6.20;;;7.10;99.90;;;;;;4994240;28;20019;-71
2023/12/12 01:46:44;;;;;;;21.48;6.40;;;7.10;99.90;;;;;;4993127;28;20077;-72
2023/12/12 01:49:10;;;;;;;21.27;6.32;;;7.10;99.90;;;;;;4994299;28;20037;-71
2023/12/12 01:51:36;;;;;;;30.55;6.35;;;7.10;99.90;;;;;;4993514;28;20558;-72
2023/12/12 01:54:03;;;;;;;22.73;5.50;;;7.10;99.90;;;;;;4993445;28;20041;-72
2023/12/12 01:56:30;;;;;;;17.98;5.05;;;7.10;99.90;;;;;;4992965;28;20022;-70
2023/12/12 01:58:57;;;;;;;19.65;5.15;;;7.00;99.90;;;;;;4992171;28;20471;-72
2023/12/12 02:01:24;;;;;;;26.63;5.60;;;7.10;99.90;;;;;;4993423;28;20029;-72
2023/12/12 02:03:51;;;;;;;23.98;5.35;;;7.00;99.90;;;;;;4993862;28;20030;-71
2023/12/12 02:06:22;;;;;;;18.50;5.43;;;7.00;99.90;;;;;;4992181;28;20034;-71
2023/12/12 02:08:51;;;;;;;18.83;5.40;;;7.00;99.90;;;;;;4992983;28;20025;-71
2023/12/12 02:11:18;;;;;;;17.77;4.20;;;7.00;99.90;;;;;;4993202;28;20042;-71
2023/12/12 02:13:44;;;;;;;18.15;5.15;;;7.00;99.90;;;;;;4993117;28;20023;-71
2023/12/12 02:16:10;;;;;;;18.58;5.57;;;7.00;99.90;;;;;;4993556;28;20027;-71
2023/12/12 02:18:36;;;;;;;18.10;4.85;;;7.00;99.90;;;;;;4993183;28;20019;-71
2023/12/12 02:21:02;;;;;;;25.95;5.57;;;7.00;99.90;;;;;;4992255;28;20133;-71
2023/12/12 02:23:28;;;;;;;20.33;5.30;;;7.00;99.90;;;;;;4993267;28;20037;-70
2023/12/12 02:25:54;;;;;;;23.00;5.07;;;7.00;99.90;;;;;;4993197;28;20629;-69
2023/12/12 02:28:20;;;;;;;21.10;5.35;;;7.00;99.90;;;;;;4993004;28;20018;-70
2023/12/12 02:30:46;;;;;;;18.00;4.70;;;6.90;99.90;;;;;;4992791;28;20089;-71
2023/12/12 02:33:11;;;;;;;23.05;4.70;;;6.90;99.90;;;;;;4992856;28;20023;-71
2023/12/12 02:35:37;;;;;;;17.42;4.93;;;6.90;99.90;;;;;;4993252;28;20468;-72
2023/12/12 02:38:02;;;;;;;21.98;4.80;;;6.90;99.90;;;;;;4992902;28;20038;-70
2023/12/12 02:40:28;;;;;;;22.63;4.60;;;7.00;99.90;;;;;;5007980;28;20022;-71
2023/12/12 02:42:54;;;;;;;20.45;5.30;;;7.00;99.90;;;;;;4992865;28;20027;-71
2023/12/12 02:45:19;;;;;;;21.80;6.05;;;7.00;99.90;;;;;;4992796;28;20031;-71
2023/12/12 02:47:45;;;;;;;21.60;5.47;;;7.00;99.90;;;;;;4992963;28;20368;-71
2023/12/12 02:50:11;;;;;;;24.27;5.70;;;7.00;99.90;;;;;;4992971;28;20030;-71
2023/12/12 02:52:36;;;;;;;16.27;5.30;;;6.90;99.90;;;;;;4992853;28;20030;-71
2023/12/12 02:55:02;;;;;;;18.92;5.85;;;6.90;99.90;;;;;;4992639;28;20026;-71
2023/12/12 02:57:28;;;;;;;23.05;5.60;;;6.90;99.90;;;;;;4992800;28;20383;-71
2023/12/12 02:59:53;;;;;;;21.50;5.30;;;6.90;99.90;;;;;;4992822;28;20022;-71
2023/12/12 03:02:19;;;;;;;18.52;4.82;;;6.90;99.90;;;;;;4992685;28;20022;-71
2023/12/12 03:04:45;;;;;;;20.95;5.47;;;6.90;99.90;;;;;;4992347;28;20101;-71
2023/12/12 03:07:12;;;;;;;21.23;5.32;;;6.90;99.90;;;;;;4992841;28;20027;-70
2023/12/12 03:09:38;;;;;;;21.70;5.45;;;6.90;99.90;;;;;;4992069;28;20038;-71
2023/12/12 03:12:04;;;;;;;19.25;5.15;;;6.90;99.90;;;;;;4991395;28;20373;-69
2023/12/12 03:14:30;;;;;;;18.63;5.43;;;6.90;99.90;;;;;;4992401;28;20041;-71
2023/12/12 03:16:58;;;;;;;20.88;6.07;;;6.90;99.90;;;;;;4992392;28;20031;-72
2023/12/12 03:19:24;;;;;;;16.35;5.55;;;6.90;99.90;;;;;;4991889;28;20049;-71
2023/12/12 03:21:50;;;;;;;18.58;6.32;;;6.90;99.90;;;;;;4991046;28;20388;-71
2023/12/12 03:24:16;;;;;;;21.92;5.72;;;6.80;99.90;;;;;;4991289;28;20110;-72
2023/12/12 03:26:42;;;;;;;25.50;6.28;;;6.80;99.90;;;;;;4991613;28;20055;-71
2023/12/12 03:29:08;;;;;;;19.13;5.53;;;6.80;99.90;;;;;;4992626;28;20029;-71
2023/12/12 03:31:33;;;;;;;28.98;6.55;;;6.80;99.90;;;;;;4991725;28;20407;-71
2023/12/12 03:33:59;;;;;;;18.45;6.03;;;6.80;99.90;;;;;;4992311;28;20099;-71
2023/12/12 03:36:25;;;;;;;16.33;6.10;;;6.80;99.90;;;;;;4991945;28;21034;-70
2023/12/12 03:38:50;;;;;;;17.33;6.30;;;6.80;99.90;;;;;;4991812;28;20026;-73
2023/12/12 03:41:16;;;;;;;17.58;6.20;;;6.90;99.90;;;;;;4992367;28;20047;-71
2023/12/12 03:43:42;;;;;;;19.98;5.88;;;6.90;99.90;;;;;;4991741;28;20038;-71
2023/12/12 03:46:14;;;;;;;16.67;6.03;;;6.80;99.90;;;;;;4991570;28;20492;-71
2023/12/12 03:48:39;;;;;;;19.67;6.22;;;6.90;99.90;;;;;;4992326;28;20031;-71
2023/12/12 03:51:14;;;;;;;19.92;6.93;;;6.80;99.90;;;;;;4990674;28;20041;-72
2023/12/12 03:53:40;;;;;;;15.05;6.80;;;6.80;99.90;;;;;;4992122;28;20109;-72
2023/12/12 03:56:09;;;;;;;21.15;6.38;;;6.80;99.90;;;;;;4991969;28;20369;-70
2023/12/12 03:58:35;;;;;;;21.10;6.93;;;6.80;99.90;;;;;;4991814;28;20045;-70
2023/12/12 04:01:01;;;;;;;17.63;6.78;;;6.80;99.90;;;;;;5006938;28;20062;-71
2023/12/12 04:03:26;;;;;;;18.23;6.72;;;6.80;99.90;;;;;;4991758;28;20058;-69
2023/12/12 04:05:52;;;;;;;15.63;5.72;;;6.80;99.90;;;;;;4989712;28;20045;-71
2023/12/12 04:08:17;;;;;;;24.05;6.90;;;6.70;99.90;;;;;;4988787;28;20037;-71
2023/12/12 04:10:43;;;;;;;22.70;7.57;;;6.70;99.90;;;;;;4990893;28;20065;-72
2023/12/12 04:13:09;;;;;;;23.08;7.13;;;6.70;99.90;;;;;;4989601;28;20038;-72
2023/12/12 04:15:35;;;;;;;25.70;7.43;;;6.70;99.90;;;;;;4991473;28;20018;-72
2023/12/12 04:18:00;;;;;;;21.63;7.55;;;6.60;99.90;;;;;;4991594;28;20184;-71
2023/12/12 04:20:26;;;;;;;17.65;6.97;;;6.60;99.90;;;;;;4991425;28;20018;-71
2023/12/12 04:22:51;;;;;;;21.40;7.82;;;6.60;99.90;;;;;;4991942;28;21096;-71
2023/12/12 04:25:19;;;;;;;21.85;7.82;;;6.60;99.90;;;;;;4991473;28;20026;-71
2023/12/12 04:27:45;;;;;;;22.80;7.65;;;6.60;99.90;;;;;;4991520;28;20026;-73
2023/12/12 04:30:11;;;;;;;26.63;8.52;;;6.60;99.90;;;;;;4989978;28;20097;-71
2023/12/12 04:32:36;;;;;;;21.50;8.02;;;6.60;99.90;;;;;;4991667;28;20027;-71
2023/12/12 04:35:05;;;;;;;23.52;7.65;;;6.60;99.90;;;;;;4991832;28;20026;-71
2023/12/12 04:37:31;;;;;;;50.03;18.35;;;6.60;99.90;;;;;;4991480;28;20019;-71
2023/12/12 04:39:56;;;;;;;23.70;8.48;;;6.60;99.90;;;;;;4991393;28;20100;-71
2023/12/12 04:42:23;;;;;;;18.73;7.25;;;6.60;99.90;;;;;;4991536;28;20050;-71
2023/12/12 04:44:49;;;;;;;20.77;7.90;;;6.60;99.90;;;;;;4990021;28;20018;-71
2023/12/12 04:47:14;;;;;;;20.83;7.78;;;6.60;99.90;;;;;;4991340;28;20041;-72
2023/12/12 04:49:40;;;;;;;22.77;8.07;;;6.60;99.90;;;;;;4990356;28;20039;-70
2023/12/12 04:52:06;;;;;;;24.17;7.82;;;6.60;99.90;;;;;;4988665;28;20045;-71
2023/12/12 04:54:31;;;;;;;26.75;7.55;;;6.60;99.90;;;;;;4992103;28;20049;-71
2023/12/12 04:56:57;;;;;;;20.75;7.32;;;6.60;99.90;;;;;;4992362;28;20098;-71
2023/12/12 04:59:22;;;;;;;21.45;6.90;;;6.60;99.90;;;;;;4992752;28;20042;-72
2023/12/12 05:01:48;;;;;;;15.93;6.85;;;6.50;99.90;;;;;;4994599;28;20026;-71
2023/12/12 05:04:14;;;;;;;22.45;6.63;;;6.50;99.90;;;;;;4994829;28;20026;-72
2023/12/12 05:06:40;;;;;;;20.13;6.63;;;6.50;99.90;;;;;;4991211;28;20027;-72
2023/12/12 05:09:06;;;;;;;18.85;6.88;;;6.50;99.90;;;;;;4993110;28;20038;-72
2023/12/12 05:11:31;;;;;;;19.55;6.63;;;6.50;99.90;;;;;;4994553;28;20059;-71
2023/12/12 05:13:57;;;;;;;25.33;7.07;;;6.50;99.90;;;;;;4994457;28;20053;-71
2023/12/12 05:16:24;;;;;;;15.63;6.65;;;6.50;99.90;;;;;;4994486;28;20038;-72
2023/12/12 05:18:49;;;;;;;16.30;6.47;;;6.50;99.90;;;;;;4991293;28;20030;-71
2023/12/12 05:21:16;;;;;;;16.00;6.45;;;6.50;99.90;;;;;;4992976;28;20081;-70
2023/12/12 05:23:42;;;;;;;17.88;6.70;;;6.50;99.90;;;;;;4994611;28;20106;-69
2023/12/12 05:26:08;;;;;;;16.60;6.38;;;6.40;99.90;;;;;;4993636;28;20080;-70
2023/12/12 05:28:33;;;;;;;15.77;6.10;;;6.40;99.90;;;;;;4994353;28;20094;-70
2023/12/12 05:30:59;;;;;;;15.32;5.80;;;6.40;99.90;;;;;;4994384;28;20069;-69
2023/12/12 05:33:25;;;;;;;20.60;6.60;;;6.40;99.90;;;;;;4993955;28;20034;-69
2023/12/12 05:35:50;;;;;;;17.60;6.53;;;6.50;99.90;;;;;;4989697;28;20045;-69
2023/12/12 05:38:16;;;;;;;20.88;6.47;;;6.50;99.90;;;;;;4994095;28;20041;-69
2023/12/12 05:40:42;;;;;;;16.17;6.20;;;6.40;99.90;;;;;;4994008;28;20098;-68
2023/12/12 05:43:09;;;;;;;11.93;5.85;;;6.40;99.90;;;;;;4993993;28;20030;-70
2023/12/12 05:45:34;;;;;;;18.45;7.07;;;6.40;99.90;;;;;;4992762;28;20042;-69
2023/12/12 05:48:03;;;;;;;19.02;6.05;;;6.50;99.90;;;;;;4992997;28;20045;-70
2023/12/12 05:50:29;;;;;;;20.38;6.40;;;6.50;99.90;;;;;;4991555;28;20043;-70
2023/12/12 05:52:54;;;;;;;15.43;5.97;;;6.50;99.90;;;;;;4990332;28;20034;-69
2023/12/12 05:55:20;;;;;;;19.55;6.65;;;6.50;99.90;;;;;;4990955;28;20126;-69
2023/12/12 05:57:45;;;;;;;23.33;6.25;;;6.50;99.90;;;;;;4991024;28;20034;-70
2023/12/12 06:00:11;;;;;;;18.58;6.50;;;6.50;99.90;;;;;;4993340;28;20108;-69
2023/12/12 06:02:37;;;;;;;17.63;6.45;;;6.40;99.90;;;;;;4988345;28;20031;-70
2023/12/12 06:05:07;;;;;;;20.52;8.15;;;6.40;99.90;;;;;;4993015;28;20035;-70
2023/12/12 06:07:36;;;;;;;23.88;8.43;;;6.40;99.90;;;;;;4993266;28;20141;-70
2023/12/12 06:10:04;;;;;;;23.05;7.60;;;6.40;99.90;;;;;;4991910;28;20034;-69
2023/12/12 06:12:30;;;;;;;27.48;12.32;;;6.50;99.90;;;;;;4990552;28;20050;-69
2023/12/12 06:14:56;;;;;;;21.90;10.45;;;6.50;99.90;;;;;;4992941;28;20023;-68
2023/12/12 06:17:22;;;;;;;21.00;7.90;;;6.50;99.90;;;;;;4991426;28;20027;-69
2023/12/12 06:19:47;;;;;;;13.07;6.10;;;6.50;99.90;;;;;;4987222;28;20031;-69
2023/12/12 06:22:13;;;;;;;21.70;6.88;;;6.50;99.90;;;;;;4991708;28;20033;-68
2023/12/12 06:24:39;;;;;;;14.05;5.80;;;6.50;99.90;;;;;;4990980;28;20062;-69
2023/12/12 06:27:04;;;;;;;19.10;6.55;;;6.50;99.90;;;;;;4993609;28;20462;-69
2023/12/12 06:29:30;;;;;;;16.58;6.45;;;6.50;99.90;;;;;;4991882;28;20034;-69
2023/12/12 06:31:55;;;;;;;12.63;5.72;;;6.50;99.90;;;;;;4993146;28;20069;-69
2023/12/12 06:34:21;;;;;;;19.65;6.55;;;6.50;99.90;;;;;;5005763;28;20031;-69
2023/12/12 06:36:47;;;;;;;13.25;6.40;;;6.50;99.90;;;;;;4992742;28;20030;-69
2023/12/12 06:39:14;;;;;;;17.17;5.93;;;6.50;99.90;;;;;;4993226;28;20038;-69
2023/12/12 06:41:41;;;;;;;17.35;6.35;;;6.50;99.90;;;;;;4991839;28;20027;-69
2023/12/12 06:44:06;;;;;;;16.30;6.40;;;6.50;99.90;;;;;;4991772;28;20031;-69
2023/12/12 06:46:32;;;;;;;15.57;6.30;;;6.50;99.90;;;;;;4988749;28;20033;-70
2023/12/12 06:48:58;;;;;;;19.55;6.85;;;6.50;99.90;;;;;;4991846;28;20065;-68
2023/12/12 06:51:23;;;;;;;14.68;6.03;;;6.50;99.90;;;;;;4990317;28;20034;-69
2023/12/12 06:53:52;;;;;;;20.33;7.57;;;6.50;99.90;;;;;;4991923;28;20022;-69
2023/12/12 06:56:19;;;;;;;20.60;6.30;;;6.50;99.90;;;;;;4990742;28;20058;-70
2023/12/12 06:58:46;;;;;;;19.15;6.32;;;6.40;99.90;;;;;;4991035;28;20023;-69
2023/12/12 07:01:13;;;;;;;28.65;9.82;;;6.50;99.90;;;;;;4992513;28;20022;-69
2023/12/12 07:03:38;;;;;;;26.05;12.63;;;6.40;99.90;;;;;;5007171;28;20082;-69
2023/12/12 07:06:04;;;;;;;34.35;13.73;;;6.40;99.90;;;;;;4991396;28;20015;-69
2023/12/12 07:08:29;;;;;;;26.30;10.85;;;6.40;99.90;;;;;;4992344;28;20023;-70
2023/12/12 07:10:55;;;;;;;43.08;12.57;;;6.40;99.90;;;;;;4992458;28;20074;-70
2023/12/12 07:13:21;;;;;;;26.73;11.43;;;6.40;99.90;;;;;;4992206;28;20034;-69
2023/12/12 07:15:47;;;;;;;21.25;8.50;;;6.40;99.90;;;;;;4992269;28;20239;-70
2023/12/12 07:18:14;;;;;;;23.70;8.20;;;6.40;99.90;;;;;;4990423;28;20084;-70
2023/12/12 07:20:41;;;;;;;25.50;7.13;;;6.40;99.90;;;;;;4992505;28;20037;-70
2023/12/12 07:23:07;;;;;;;21.35;7.15;;;6.40;99.90;;;;;;4992637;28;20027;-70
2023/12/12 07:25:33;;;;;;;14.90;6.57;;;6.50;99.90;;;;;;4991441;28;20134;-70
2023/12/12 07:27:58;;;;;;;27.27;7.50;;;6.50;99.90;;;;;;4992296;28;20034;-70
2023/12/12 07:30:24;;;;;;;19.77;7.03;;;6.50;99.90;;;;;;4989911;28;20128;-69
2023/12/12 07:32:49;;;;;;;22.92;7.20;;;6.50;99.90;;;;;;4991845;28;20050;-69
2023/12/12 07:35:16;;;;;;;20.98;7.47;;;6.50;99.90;;;;;;4992104;28;20015;-68
2023/12/12 07:37:42;;;;;;;16.15;6.75;;;6.50;99.90;;;;;;4992097;28;20028;-69
2023/12/12 07:40:08;;;;;;;18.35;6.75;;;6.50;99.90;;;;;;4992330;28;20113;-69
2023/12/12 07:42:34;;;;;;;20.10;7.00;;;6.50;99.90;;;;;;4991668;28;20031;-69
2023/12/12 07:45:01;;;;;;;22.38;7.97;;;6.50;99.90;;;;;;4992072;28;20033;-70
2023/12/12 07:47:26;;;;;;;19.52;6.95;;;6.50;99.90;;;;;;4992016;28;20034;-69
2023/12/12 07:49:52;;;;;;;16.85;6.30;;;6.40;99.90;;;;;;4990572;28;20034;-70
2023/12/12 07:52:18;;;;;;;16.90;7.00;;;6.40;99.90;;;;;;4989296;28;20026;-69
2023/12/12 07:54:43;;;;;;;13.95;6.72;;;6.40;99.90;;;;;;4990840;28;20049;-70
2023/12/12 07:57:09;;;;;;;18.65;6.82;;;6.40;99.90;;;;;;4990888;28;20022;-70
2023/12/12 07:59:35;;;;;;;17.33;6.38;;;6.40;99.90;;;;;;4992086;28;20507;-69
2023/12/12 08:02:01;;;;;;;25.50;6.65;;;6.40;99.90;;;;;;4991231;28;20022;-70
2023/12/12 08:04:27;;;;;;;20.30;7.07;;;6.30;99.90;;;;;;4991693;28;20038;-69
2023/12/12 08:06:53;;;;;;;17.50;7.28;;;6.30;99.90;;;;;;4989171;28;20038;-70
2023/12/12 08:09:19;;;;;;;19.60;7.25;;;6.30;99.90;;;;;;4991446;28;20046;-69
2023/12/12 08:11:44;;;;;;;14.60;6.97;;;6.20;99.90;;;;;;4991797;28;20692;-70
2023/12/12 08:14:10;;;;;;;18.65;7.30;;;6.30;99.90;;;;;;4991395;28;20038;-70
2023/12/12 08:16:35;;;;;;;19.23;7.35;;;6.20;99.90;;;;;;4990356;28;20022;-70
2023/12/12 08:19:01;;;;;;;17.98;7.20;;;6.20;99.90;;;;;;4991819;28;20030;-69
2023/12/12 08:21:26;;;;;;;19.65;7.60;;;6.10;99.90;;;;;;4989827;28;20081;-69
2023/12/12 08:23:54;;;;;;;22.00;8.98;;;6.20;99.90;;;;;;4991853;28;20046;-69
2023/12/12 08:26:22;;;;;;;18.75;8.00;;;6.10;99.90;;;;;;4991145;28;20065;-69
2023/12/12 08:28:48;;;;;;;20.17;8.40;;;6.10;99.90;;;;;;4991057;28;20086;-69
2023/12/12 08:31:13;;;;;;;16.88;7.75;;;6.10;99.90;;;;;;4988968;28;20062;-70
2023/12/12 08:33:39;;;;;;;24.40;9.88;;;6.10;99.90;;;;;;4988794;28;20114;-69
2023/12/12 08:36:06;;;;;;;29.00;10.00;;;6.10;99.90;;;;;;4994728;28;20029;-70
2023/12/12 08:38:31;;;;;;;21.17;9.45;;;6.10;99.90;;;;;;4989003;28;20590;-70
2023/12/12 08:40:57;;;;;;;20.52;9.25;;;6.00;99.90;;;;;;4993548;28;20057;-69
2023/12/12 08:43:23;;;;;;;28.92;10.40;;;6.10;99.90;;;;;;4988780;28;20027;-70
2023/12/12 08:45:50;;;;;;;28.75;10.38;;;6.10;99.90;;;;;;4991400;28;20064;-70
2023/12/12 08:48:15;;;;;;;24.75;10.38;;;6.10;99.90;;;;;;4991535;28;20023;-71
2023/12/12 08:50:41;;;;;;;24.73;10.95;;;6.10;99.90;;;;;;4989855;28;20058;-70
2023/12/12 08:53:06;;;;;;;27.88;10.07;;;6.10;99.90;;;;;;4993794;28;20041;-70
2023/12/12 08:55:32;;;;;;;31.67;11.38;;;6.30;99.90;;;;;;4993278;28;20058;-69
2023/12/12 08:57:57;;;;;;;28.92;11.35;;;6.20;99.90;;;;;;4994553;28;20093;-69
2023/12/12 09:00:23;;;;;;;26.52;10.43;;;6.20;99.90;;;;;;4992652;28;20026;-70
2023/12/12 09:02:49;;;;;;;24.45;10.77;;;6.30;99.90;;;;;;4992962;28;20073;-69
2023/12/12 09:05:15;;;;;;;21.65;11.05;;;6.40;99.90;;;;;;4991638;28;20034;-69
2023/12/12 09:07:41;;;;;;;26.63;10.95;;;6.40;99.90;;;;;;4991476;28;20136;-70
2023/12/12 09:10:07;;;;;;;23.50;10.27;;;6.40;99.90;;;;;;4990566;28;20117;-70
2023/12/12 09:12:33;;;;;;;30.55;10.30;;;6.40;99.90;;;;;;4987933;28;20035;-70
2023/12/12 09:14:59;;;;;;;35.33;11.15;;;6.50;99.90;;;;;;4991745;28;20023;-68
2023/12/12 09:17:25;;;;;;;21.70;10.70;;;6.50;99.90;;;;;;4991625;28;20042;-68
2023/12/12 09:19:50;;;;;;;25.30;11.20;;;6.50;99.90;;;;;;4992299;28;20037;-69
2023/12/12 09:22:16;;;;;;;27.13;11.95;;;6.40;99.90;;;;;;4991257;28;20058;-70
2023/12/12 09:24:42;;;;;;;32.22;12.05;;;6.50;99.90;;;;;;4991502;28;20038;-68
2023/12/12 09:27:08;;;;;;;25.77;11.73;;;6.60;99.90;;;;;;4991695;28;20053;-69
2023/12/12 09:29:33;;;;;;;30.25;12.10;;;6.60;99.90;;;;;;4992466;28;20035;-69
2023/12/12 09:31:59;;;;;;;28.73;11.18;;;6.60;99.90;;;;;;4992718;28;20023;-69
2023/12/12 09:34:24;;;;;;;30.33;11.45;;;6.70;99.90;;;;;;4994233;28;20031;-68
2023/12/12 09:36:50;;;;;;;24.75;11.20;;;6.70;99.90;;;;;;4991066;28;20427;-69
2023/12/12 09:39:17;;;;;;;28.92;11.27;;;6.60;99.90;;;;;;4994094;28;20110;-69
2023/12/12 09:41:48;;;;;;;33.60;12.05;;;6.50;99.90;;;;;;4993613;28;20041;-69
2023/12/12 09:44:16;;;;;;;27.73;11.73;;;6.60;99.90;;;;;;4992950;28;20491;-70
2023/12/12 09:46:43;;;;;;;23.70;11.52;;;6.60;99.90;;;;;;4988087;28;20081;-69
2023/12/12 09:49:11;;;;;;;27.48;11.82;;;6.50;99.90;;;;;;4994018;28;20025;-69
2023/12/12 09:51:41;;;;;;;34.00;12.55;;;6.50;99.90;;;;;;4992202;28;20042;-68
2023/12/12 09:54:10;;;;;;;28.85;11.18;;;6.60;99.90;;;;;;4991431;28;20034;-69
2023/12/12 09:56:39;;;;;;;32.03;12.32;;;6.60;99.90;;;;;;4993954;28;20023;-69
2023/12/12 09:59:08;;;;;;;25.63;12.27;;;6.60;99.90;;;;;;4992331;28;20053;-70
2023/12/12 10:01:34;;;;;;;27.48;12.35;;;6.60;99.90;;;;;;4990505;28;20034;-70
2023/12/12 10:04:06;;;;;;;28.38;12.32;;;6.60;99.90;;;;;;4990046;28;20034;-68
2023/12/12 10:06:41;;;;;;;28.67;13.90;;;6.70;99.90;;;;;;4988380;28;20023;-69
2023/12/12 10:09:07;;;;;;;32.25;13.50;;;6.70;99.90;;;;;;4992476;28;20033;-69
2023/12/12 10:11:32;;;;;;;30.10;13.20;;;6.70;99.90;;;;;;4990515;28;20078;-68
2023/12/12 10:14:00;;;;;;;35.30;12.95;;;6.80;99.90;;;;;;4992135;28;20098;-68
2023/12/12 10:16:27;;;;;;;32.95;13.02;;;6.80;99.90;;;;;;4992794;28;20062;-68
2023/12/12 10:18:52;;;;;;;32.22;13.05;;;6.90;99.90;;;;;;4992623;28;20094;-69
2023/12/12 10:21:22;;;;;;;37.85;13.95;;;6.90;99.90;;;;;;4992133;28;20023;-68
2023/12/12 10:23:52;;;;;;;28.10;13.52;;;6.90;99.90;;;;;;4988737;28;20053;-68
2023/12/12 10:26:32;;;;;;;31.05;13.88;;;6.90;99.90;;;;;;4989077;28;20571;-69
2023/12/12 10:28:59;;;;;;;40.05;14.07;;;6.90;99.90;;;;;;4991823;28;20054;-68
2023/12/12 10:31:25;;;;;;;32.25;13.77;;;6.80;99.90;;;;;;4991989;28;20125;-69
2023/12/12 10:33:52;;;;;;;32.92;13.15;;;6.80;99.90;;;;;;4992662;28;20057;-69
2023/12/12 10:36:17;;;;;;;30.92;13.43;;;6.70;99.90;;;;;;4991735;28;20018;-69
2023/12/12 10:38:44;;;;;;;38.70;13.77;;;6.70;99.90;;;;;;4990410;28;20046;-69
2023/12/12 10:41:14;;;;;;;38.40;15.82;;;6.70;99.90;;;;;;4991217;28;20046;-70
2023/12/12 10:43:41;;;;;;;35.45;15.05;;;6.70;99.90;;;;;;4991672;28;20031;-68
2023/12/12 10:46:16;;;;;;;38.85;15.10;;;6.70;99.90;;;;;;4989318;28;20038;-70
2023/12/12 10:48:46;;;;;;;39.53;16.00;;;6.70;99.90;;;;;;4992614;28;20035;-69
2023/12/12 10:51:14;;;;;;;39.75;15.40;;;6.70;99.90;;;;;;4990252;28;20061;-71
2023/12/12 10:53:41;;;;;;;32.65;15.00;;;6.70;99.90;;;;;;4990728;28;20035;-69
2023/12/12 10:56:08;;;;;;;39.67;15.88;;;6.70;99.90;;;;;;4992117;28;20029;-71
2023/12/12 10:58:35;;;;;;;39.47;16.27;;;6.70;99.90;;;;;;4992001;28;20078;-69
2023/12/12 11:01:02;;;;;;;39.63;16.20;;;6.70;99.90;;;;;;4989806;28;20030;-69
2023/12/12 11:03:28;;;;;;;34.28;14.88;;;6.80;99.90;;;;;;4990509;28;20084;-68
2023/12/12 11:05:54;;;;;;;40.47;16.35;;;6.70;99.90;;;;;;4988828;28;20026;-69
2023/12/12 11:08:21;;;;;;;38.60;16.45;;;6.80;99.90;;;;;;4987005;28;20037;-70
2023/12/12 11:10:53;;;;;;;39.78;16.30;;;6.80;99.90;;;;;;4989012;28;20774;-69
2023/12/12 11:13:21;;;;;;;40.53;16.20;;;6.80;99.90;;;;;;4989039;28;20027;-69
2023/12/12 11:15:47;;;;;;;40.50;17.25;;;6.80;99.90;;;;;;4991841;28;20019;-69
2023/12/12 11:18:15;;;;;;;42.40;17.65;;;6.80;99.90;;;;;;4988913;28;20038;-69
2023/12/12 11:20:41;;;;;;;39.90;16.75;;;6.80;99.90;;;;;;4991153;28;20026;-70
2023/12/12 11:23:07;;;;;;;38.42;16.95;;;6.80;99.90;;;;;;4990657;28;20023;-69
2023/12/12 11:25:37;;;;;;;43.83;17.38;;;6.80;99.90;;;;;;4985881;28;20157;-70
2023/12/12 11:28:03;;;;;;;44.55;17.48;;;6.80;99.90;;;;;;4982528;28;20022;-69
2023/12/12 11:30:39;;;;;;;47.97;17.33;;;6.80;99.90;;;;;;4989701;28;20105;-69
2023/12/12 11:33:11;;;;;;;42.47;16.70;;;6.80;99.90;;;;;;4990792;28;20089;-70
2023/12/12 11:35:37;;;;;;;43.95;16.58;;;6.80;99.90;;;;;;4989379;28;20035;-70
2023/12/12 11:38:24;;;;;;;45.53;17.73;;;6.80;99.90;;;;;;4989181;28;20042;-69
2023/12/12 11:41:09;;;;;;;47.72;17.48;;;6.80;99.90;;;;;;4991275;28;20030;-70
2023/12/12 11:43:36;;;;;;;43.75;18.00;;;6.80;99.90;;;;;;4989754;28;20061;-70
2023/12/12 11:46:18;;;;;;;42.38;17.17;;;6.80;99.90;;;;;;4989363;28;20503;-69
2023/12/12 11:48:44;;;;;;;37.60;16.50;;;6.80;99.90;;;;;;4990695;28;20046;-70
2023/12/12 11:51:52;;;;;;;44.65;16.23;;;6.90;99.90;;;;;;4991347;28;20046;-69
2023/12/12 11:54:22;;;;;;;41.25;16.67;;;7.10;99.90;;;;;;4929620;29;20500;-71
2023/12/12 11:56:54;;;;;;;39.17;16.08;;;7.20;99.90;;;;;;4931993;29;20031;-69
2023/12/12 11:59:22;;;;;;;35.33;15.77;;;7.30;99.90;;;;;;4965748;28;20069;-69
2023/12/12 12:01:47;;;;;;;37.35;16.13;;;7.40;99.90;;;;;;4991664;28;20022;-70
2023/12/12 12:04:13;;;;;;;39.70;16.10;;;7.50;99.90;;;;;;4992358;28;20030;-69
2023/12/12 12:06:38;;;;;;;37.05;15.68;;;7.70;99.90;;;;;;4993708;28;20026;-69
2023/12/12 12:09:06;;;;;;;31.42;14.68;;;7.80;99.90;;;;;;4995652;28;20066;-69
2023/12/12 12:11:36;;;;;;;35.88;15.57;;;7.80;99.90;;;;;;4995293;28;20038;-69
2023/12/12 12:14:02;;;;;;;36.63;14.18;;;7.90;99.90;;;;;;4995527;28;20104;-69
2023/12/12 12:16:28;;;;;;;33.15;13.50;;;8.00;99.90;;;;;;4995719;28;20026;-70
2023/12/12 12:18:54;;;;;;;35.03;14.05;;;8.20;99.90;;;;;;4995154;28;20023;-69
2023/12/12 12:21:26;;;;;;;31.92;14.98;;;8.40;99.90;;;;;;4994402;28;20042;-69
2023/12/12 12:23:52;;;;;;;32.30;13.50;;;8.70;99.90;;;;;;4994059;28;20027;-70
2023/12/12 12:26:19;;;;;;;35.10;13.48;;;9.10;99.90;;;;;;4995178;28;20159;-70
2023/12/12 12:28:44;;;;;;;25.60;12.77;;;9.30;99.90;;;;;;4995419;28;20054;-70
2023/12/12 12:31:10;;;;;;;30.73;13.18;;;9.30;99.90;;;;;;4994605;28;20054;-70
2023/12/12 12:33:40;;;;;;;32.20;13.02;;;9.20;99.90;;;;;;4995815;28;20065;-69
2023/12/12 12:36:06;;;;;;;29.50;12.15;;;9.00;99.90;;;;;;4994390;28;20038;-69
2023/12/12 12:38:32;;;;;;;27.75;12.07;;;8.80;99.90;;;;;;4995404;28;20034;-69
2023/12/12 12:40:58;;;;;;;27.88;12.45;;;8.60;99.90;;;;;;4994770;28;20030;-69